Time;durP1;ratioP1;P1;durP2;ratioP2;P2;SDS_P1;SDS_P2;PMS_P1;PMS_P2;Temp;Humidity;BMP_temperature;BMP_pressure;BME280_temperature;BME280_humidity;BME280_pressure;Samples;Min_cycle;Max_cycle;Signal;HPM_P1;HPM_P2
2023/06/03 00:02:10;;;;;;;14.27;8.70;;;20.70;60.50;;;;;;5082647;28;20028;-57
2023/06/03 00:04:41;;;;;;;10.52;7.35;;;20.70;61.30;;;;;;5088210;28;20077;-58
2023/06/03 00:07:07;;;;;;;9.32;6.97;;;20.70;62.90;;;;;;5085699;28;20059;-57
2023/06/03 00:09:33;;;;;;;10.48;5.70;;;20.70;63.60;;;;;;5083558;28;20497;-54
2023/06/03 00:11:59;;;;;;;7.90;5.00;;;20.70;64.40;;;;;;5084573;28;20036;-57
2023/06/03 00:14:25;;;;;;;8.20;5.25;;;20.70;64.60;;;;;;5081083;28;20115;-54
2023/06/03 00:16:51;;;;;;;5.50;4.15;;;20.70;64.70;;;;;;5085952;28;20020;-57
2023/06/03 00:19:17;;;;;;;7.03;4.32;;;20.60;64.00;;;;;;5083434;28;20031;-58
2023/06/03 00:21:49;;;;;;;7.57;3.85;;;20.60;64.40;;;;;;5085048;28;20024;-57
2023/06/03 00:24:22;;;;;;;5.50;3.70;;;20.60;65.10;;;;;;5089138;28;20036;-52
2023/06/03 00:26:49;;;;;;;5.93;4.07;;;20.60;64.70;;;;;;5086324;28;20038;-56
2023/06/03 00:29:15;;;;;;;5.95;3.85;;;20.50;64.40;;;;;;5081855;28;20570;-57
2023/06/03 00:31:40;;;;;;;3.97;3.55;;;20.50;64.40;;;;;;5084816;28;20032;-58
2023/06/03 00:34:06;;;;;;;5.20;3.97;;;20.40;64.30;;;;;;5088748;28;20046;-57
2023/06/03 00:36:32;;;;;;;5.07;3.80;;;20.40;64.40;;;;;;5083046;28;20480;-57
2023/06/03 00:38:57;;;;;;;4.50;3.50;;;20.30;64.60;;;;;;5083992;28;20043;-54
2023/06/03 00:41:23;;;;;;;4.70;3.88;;;20.30;64.70;;;;;;5088471;28;20408;-56
2023/06/03 00:43:49;;;;;;;5.93;4.18;;;20.20;64.70;;;;;;5082834;28;20137;-58
2023/06/03 00:46:18;;;;;;;5.45;3.72;;;20.20;64.70;;;;;;5084956;28;20047;-57
2023/06/03 00:48:44;;;;;;;4.65;3.83;;;20.20;64.80;;;;;;5084822;28;20395;-54
2023/06/03 00:51:10;;;;;;;5.38;3.78;;;20.10;64.80;;;;;;5087481;28;20032;-57
2023/06/03 00:53:36;;;;;;;4.57;3.65;;;20.10;64.80;;;;;;5079478;28;20028;-58
2023/06/03 00:56:01;;;;;;;4.80;3.78;;;20.10;64.80;;;;;;5089064;28;20039;-57
2023/06/03 00:58:28;;;;;;;5.90;3.50;;;20.10;64.90;;;;;;5088189;28;20035;-56
2023/06/03 01:00:55;;;;;;;4.97;3.85;;;20.10;65.00;;;;;;5089067;28;20028;-57
2023/06/03 01:03:20;;;;;;;4.25;3.53;;;20.10;65.10;;;;;;5078581;28;20020;-57
2023/06/03 01:06:24;;;;;;;4.10;3.70;;;20.10;65.30;;;;;;5085869;28;20138;-58
2023/06/03 01:09:12;;;;;;;4.22;3.53;;;20.10;65.30;;;;;;5084601;28;20028;-57
2023/06/03 01:12:03;;;;;;;4.28;3.58;;;20.10;65.40;;;;;;5079652;28;20029;-57
2023/06/03 01:14:39;;;;;;;4.45;3.55;;;20.10;65.30;;;;;;5080367;28;20021;-57
2023/06/03 01:17:09;;;;;;;4.80;3.70;;;20.00;65.40;;;;;;5085109;28;20403;-57
2023/06/03 01:19:51;;;;;;;6.07;3.95;;;20.10;65.40;;;;;;5083286;28;20032;-56
2023/06/03 01:22:18;;;;;;;;;;;20.10;65.50;;;;;;5085609;28;20103;-58
2023/06/03 01:24:44;;;;;;;4.45;3.65;;;20.00;65.00;;;;;;5084230;28;20409;-57
2023/06/03 01:27:12;;;;;;;4.45;3.90;;;20.10;65.20;;;;;;5084594;28;20043;-57
2023/06/03 01:29:40;;;;;;;5.90;3.83;;;20.10;65.30;;;;;;5086406;28;20028;-57
2023/06/03 01:32:11;;;;;;;6.05;4.30;;;20.10;65.20;;;;;;5085223;28;20020;-57
2023/06/03 01:34:37;;;;;;;;;;;20.20;65.10;;;;;;5085736;28;20024;-58
2023/06/03 01:37:04;;;;;;;5.05;3.90;;;20.20;64.80;;;;;;5078259;28;19915;-57
2023/06/03 01:39:30;;;;;;;6.80;3.97;;;20.20;65.10;;;;;;5079257;28;20093;-54
2023/06/03 01:41:56;;;;;;;5.97;3.83;;;20.20;65.40;;;;;;5082898;28;20040;-56
2023/06/03 01:44:22;;;;;;;4.43;3.78;;;20.30;66.10;;;;;;5081608;28;20522;-57
2023/06/03 01:46:48;;;;;;;5.25;3.53;;;20.30;65.40;;;;;;5078979;28;20078;-57
2023/06/03 01:49:15;;;;;;;5.05;4.03;;;20.30;65.70;;;;;;5081945;28;20103;-57
2023/06/03 01:51:40;;;;;;;5.57;4.00;;;20.40;65.60;;;;;;5086073;28;20024;-53
2023/06/03 01:54:06;;;;;;;7.60;3.72;;;20.40;65.70;;;;;;5080283;28;20030;-58
2023/06/03 01:56:32;;;;;;;5.88;3.97;;;20.40;66.20;;;;;;5086538;28;20048;-58
2023/06/03 01:58:57;;;;;;;5.13;4.00;;;20.40;66.60;;;;;;5087459;28;20085;-57
2023/06/03 02:01:24;;;;;;;4.43;3.65;;;20.40;67.20;;;;;;5075128;28;20035;-57
2023/06/03 02:03:50;;;;;;;5.55;3.90;;;20.40;67.60;;;;;;5081310;28;20533;-57
2023/06/03 02:06:15;;;;;;;5.18;4.10;;;20.40;68.00;;;;;;5077276;28;20040;-56
2023/06/03 02:08:41;;;;;;;6.63;4.43;;;20.30;68.30;;;;;;5082300;28;20657;-57
2023/06/03 02:11:07;;;;;;;11.20;5.07;;;20.30;68.80;;;;;;5082019;28;20536;-56
2023/06/03 02:13:32;;;;;;;9.52;5.05;;;20.30;70.00;;;;;;5077622;28;20127;-56
2023/06/03 02:15:58;;;;;;;8.32;4.70;;;20.30;71.00;;;;;;5084002;28;20671;-56
2023/06/03 02:18:24;;;;;;;7.40;4.72;;;20.20;71.90;;;;;;5082509;28;20491;-57
2023/06/03 02:20:49;;;;;;;6.22;4.75;;;20.20;72.60;;;;;;5083839;28;20028;-57
2023/06/03 02:23:15;;;;;;;6.05;4.30;;;20.20;73.50;;;;;;5081570;28;20382;-57
2023/06/03 02:25:41;;;;;;;6.22;4.82;;;20.10;74.10;;;;;;5081518;28;20032;-55
2023/06/03 02:28:07;;;;;;;6.65;4.55;;;20.10;74.60;;;;;;5082894;28;20046;-57
2023/06/03 02:30:33;;;;;;;7.40;4.82;;;20.10;74.90;;;;;;5079699;28;20115;-57
2023/06/03 02:32:59;;;;;;;6.95;5.05;;;20.10;75.10;;;;;;5084673;28;20459;-57
2023/06/03 02:35:24;;;;;;;6.78;5.40;;;20.00;75.30;;;;;;5080532;28;20357;-57
2023/06/03 02:37:50;;;;;;;8.40;6.18;;;20.00;75.60;;;;;;5086928;28;20433;-58
2023/06/03 02:40:16;;;;;;;6.18;5.55;;;19.90;75.60;;;;;;5081246;28;20055;-55
2023/06/03 02:42:42;;;;;;;7.68;4.80;;;19.80;75.30;;;;;;5087474;28;20118;-56
2023/06/03 02:45:08;;;;;;;4.85;4.35;;;19.80;75.20;;;;;;5081697;28;20040;-57
2023/06/03 02:47:34;;;;;;;5.95;4.63;;;19.70;75.10;;;;;;5084986;28;20031;-53
2023/06/03 02:50:00;;;;;;;5.50;4.72;;;19.70;75.20;;;;;;5080244;28;20467;-57
2023/06/03 02:52:25;;;;;;;7.88;5.47;;;19.70;76.20;;;;;;5083765;28;20036;-56
2023/06/03 02:54:51;;;;;;;6.07;5.22;;;19.70;76.10;;;;;;5081645;28;20383;-57
2023/06/03 02:57:17;;;;;;;6.80;5.22;;;19.80;76.30;;;;;;5080467;28;20032;-55
2023/06/03 02:59:43;;;;;;;5.78;5.05;;;19.70;76.40;;;;;;5078329;28;20040;-56
2023/06/03 03:02:09;;;;;;;6.35;5.13;;;19.70;76.10;;;;;;5078243;28;20042;-56
2023/06/03 03:04:36;;;;;;;5.97;4.90;;;19.70;76.20;;;;;;5087565;28;20077;-56
2023/06/03 03:07:07;;;;;;;7.03;5.32;;;19.80;76.50;;;;;;5083497;28;20444;-54
2023/06/03 03:09:33;;;;;;;5.75;4.75;;;19.80;76.90;;;;;;5075504;28;20028;-57
2023/06/03 03:11:59;;;;;;;5.97;4.93;;;19.80;77.70;;;;;;5081875;28;20044;-56
2023/06/03 03:14:25;;;;;;;5.65;4.72;;;19.90;77.30;;;;;;5079195;28;20074;-57
2023/06/03 03:16:51;;;;;;;6.05;5.38;;;19.90;77.50;;;;;;5079273;28;20032;-54
2023/06/03 03:19:17;;;;;;;6.90;4.97;;;19.90;77.40;;;;;;5078478;28;20067;-56
2023/06/03 03:21:43;;;;;;;5.63;4.80;;;19.90;77.10;;;;;;5079468;28;20056;-56
2023/06/03 03:24:08;;;;;;;5.38;4.70;;;19.90;77.10;;;;;;5078548;28;20507;-56
2023/06/03 03:26:34;;;;;;;6.97;5.10;;;20.00;77.00;;;;;;5080501;28;20024;-57
2023/06/03 03:29:00;;;;;;;7.05;5.35;;;20.00;77.00;;;;;;5081321;28;20036;-56
2023/06/03 03:31:26;;;;;;;5.50;4.88;;;20.10;76.50;;;;;;5077536;28;20028;-57
2023/06/03 03:33:52;;;;;;;5.78;5.15;;;20.10;75.90;;;;;;5086821;28;20085;-57
2023/06/03 03:36:22;;;;;;;7.43;4.82;;;20.10;75.80;;;;;;5080407;28;20043;-56
2023/06/03 03:39:04;;;;;;;6.75;5.85;;;20.10;75.50;;;;;;5080538;28;20565;-56
2023/06/03 03:41:30;;;;;;;5.97;4.93;;;20.10;75.60;;;;;;5081682;28;20032;-55
2023/06/03 03:43:57;;;;;;;7.35;5.65;;;20.10;75.40;;;;;;5078930;28;20039;-58
2023/06/03 03:46:22;;;;;;;6.85;5.53;;;20.10;75.30;;;;;;5078702;28;20039;-57
2023/06/03 03:48:49;;;;;;;6.32;5.20;;;20.00;75.20;;;;;;5077692;28;20036;-55
2023/06/03 03:51:15;;;;;;;6.00;5.40;;;20.00;75.20;;;;;;5082271;28;20032;-56
2023/06/03 03:53:46;;;;;;;8.45;5.97;;;19.90;75.30;;;;;;5081356;28;20497;-55
2023/06/03 03:56:20;;;;;;;7.18;5.63;;;19.80;75.40;;;;;;5079329;28;20024;-54
2023/06/03 03:58:47;;;;;;;6.50;5.60;;;19.80;75.70;;;;;;5080464;28;20062;-55
2023/06/03 04:01:15;;;;;;;5.90;4.90;;;19.70;76.00;;;;;;5083546;28;20078;-54
2023/06/03 04:03:44;;;;;;;7.68;6.13;;;19.60;76.20;;;;;;5088131;28;20028;-55
2023/06/03 04:06:11;;;;;;;6.53;5.40;;;19.70;76.90;;;;;;5084729;28;20111;-55
2023/06/03 04:08:46;;;;;;;7.10;5.22;;;19.60;76.70;;;;;;5081601;28;20089;-55
2023/06/03 04:11:26;;;;;;;6.93;5.13;;;19.50;76.80;;;;;;5079765;28;20033;-56
2023/06/03 04:13:52;;;;;;;5.47;4.88;;;19.50;76.90;;;;;;5077105;28;20035;-56
2023/06/03 04:16:42;;;;;;;5.95;4.93;;;19.40;77.20;;;;;;5087991;28;20111;-57
2023/06/03 04:19:13;;;;;;;5.90;5.30;;;19.40;77.40;;;;;;5087044;28;20091;-57
2023/06/03 04:21:38;;;;;;;6.28;5.18;;;19.30;78.00;;;;;;5085042;28;20047;-56
2023/06/03 04:24:05;;;;;;;7.15;5.60;;;19.20;78.20;;;;;;5082894;28;20055;-53
2023/06/03 04:26:30;;;;;;;6.50;5.85;;;19.10;78.90;;;;;;5083020;28;20031;-57
2023/06/03 04:28:56;;;;;;;5.60;4.97;;;19.10;79.40;;;;;;5088065;28;20024;-53
2023/06/03 04:31:22;;;;;;;7.72;5.70;;;19.10;79.90;;;;;;5088572;28;20035;-58
2023/06/03 04:33:49;;;;;;;7.18;5.53;;;19.10;80.20;;;;;;5083807;28;20036;-53
2023/06/03 04:36:14;;;;;;;7.28;6.40;;;19.00;80.50;;;;;;5080536;28;20020;-57
2023/06/03 04:38:41;;;;;;;7.85;5.95;;;19.00;80.70;;;;;;5080599;28;20029;-57
2023/06/03 04:41:10;;;;;;;9.02;6.85;;;19.00;81.00;;;;;;5088789;28;20099;-56
2023/06/03 04:43:38;;;;;;;8.45;6.20;;;18.90;81.10;;;;;;5088493;28;20136;-56
2023/06/03 04:46:06;;;;;;;7.07;5.50;;;18.80;81.30;;;;;;5088855;28;20027;-54
2023/06/03 04:48:33;;;;;;;8.63;5.70;;;18.70;81.00;;;;;;5090142;28;20024;-57
2023/06/03 04:51:01;;;;;;;7.65;6.15;;;18.60;80.70;;;;;;5087463;28;20047;-54
2023/06/03 04:53:27;;;;;;;8.52;5.95;;;18.50;80.80;;;;;;5090345;28;20107;-56
2023/06/03 04:55:52;;;;;;;7.55;5.65;;;18.40;81.00;;;;;;5090330;28;20103;-55
2023/06/03 04:58:18;;;;;;;6.53;5.53;;;18.30;81.00;;;;;;5083422;28;20476;-56
2023/06/03 05:00:45;;;;;;;8.82;5.90;;;18.20;81.00;;;;;;5090223;28;20035;-56
2023/06/03 05:03:11;;;;;;;7.15;5.70;;;18.10;81.40;;;;;;5089124;28;20024;-54
2023/06/03 05:05:43;;;;;;;8.80;5.93;;;18.10;81.90;;;;;;5090079;28;20028;-56
2023/06/03 05:08:12;;;;;;;9.90;6.30;;;18.00;82.60;;;;;;5089162;28;20036;-56
2023/06/03 05:10:38;;;;;;;9.57;6.18;;;18.00;83.00;;;;;;5085867;28;20032;-57
2023/06/03 05:13:08;;;;;;;8.30;5.97;;;18.00;82.80;;;;;;5088300;28;20621;-57
2023/06/03 05:15:34;;;;;;;6.53;5.28;;;17.90;82.60;;;;;;5082441;28;20028;-55
2023/06/03 05:18:01;;;;;;;7.55;5.25;;;17.90;82.30;;;;;;5088340;28;21317;-57
2023/06/03 05:20:27;;;;;;;7.50;5.47;;;17.90;82.10;;;;;;5089764;28;20590;-56
2023/06/03 05:22:53;;;;;;;8.50;5.57;;;17.80;81.90;;;;;;5089368;28;20376;-56
2023/06/03 05:25:18;;;;;;;10.52;5.28;;;17.70;81.80;;;;;;5090750;28;20032;-57
2023/06/03 05:27:44;;;;;;;6.53;5.20;;;17.70;81.50;;;;;;5085112;28;20074;-56
2023/06/03 05:30:10;;;;;;;6.68;5.57;;;17.70;81.00;;;;;;5086985;28;20058;-56
2023/06/03 05:32:36;;;;;;;8.32;5.47;;;17.60;81.00;;;;;;5083984;28;20024;-55
2023/06/03 05:35:02;;;;;;;6.00;4.70;;;17.60;81.10;;;;;;5089201;28;20027;-56
2023/06/03 05:37:27;;;;;;;6.63;4.60;;;17.60;80.80;;;;;;5087266;28;20025;-56
2023/06/03 05:39:53;;;;;;;7.13;4.55;;;17.50;80.60;;;;;;5086581;28;20024;-52
2023/06/03 05:42:19;;;;;;;6.70;4.75;;;17.50;80.80;;;;;;5087055;28;20040;-55
2023/06/03 05:44:45;;;;;;;6.22;4.50;;;17.40;80.50;;;;;;5087259;28;20039;-55
2023/06/03 05:47:10;;;;;;;6.05;4.85;;;17.40;80.40;;;;;;5087952;28;20050;-56
2023/06/03 05:49:36;;;;;;;5.75;4.10;;;17.40;80.40;;;;;;5088265;28;20024;-53
2023/06/03 05:52:02;;;;;;;5.72;3.90;;;17.30;80.40;;;;;;5088067;28;20046;-57
2023/06/03 05:54:28;;;;;;;5.25;4.47;;;17.30;80.40;;;;;;5087301;28;20032;-56
2023/06/03 05:56:57;;;;;;;6.55;4.00;;;17.30;80.50;;;;;;5082589;28;20550;-55
2023/06/03 05:59:24;;;;;;;8.30;4.30;;;17.20;80.70;;;;;;5086885;28;20032;-56
2023/06/03 06:01:49;;;;;;;7.38;4.57;;;17.20;80.90;;;;;;5085337;28;20097;-55
2023/06/03 06:04:15;;;;;;;6.70;4.30;;;17.20;81.10;;;;;;5087755;28;20043;-56
2023/06/03 06:06:41;;;;;;;7.13;4.40;;;17.10;81.60;;;;;;5087982;28;20028;-57
2023/06/03 06:09:06;;;;;;;5.70;4.53;;;17.20;82.10;;;;;;5087933;28;20035;-53
2023/06/03 06:11:32;;;;;;;6.80;4.25;;;17.10;81.90;;;;;;5083552;28;20597;-57
2023/06/03 06:13:58;;;;;;;4.82;3.92;;;17.10;82.10;;;;;;5088341;28;20482;-56
2023/06/03 06:16:24;;;;;;;6.55;4.50;;;17.10;82.80;;;;;;5089757;28;20035;-56
2023/06/03 06:18:50;;;;;;;6.63;4.30;;;17.10;83.10;;;;;;5090699;28;20024;-56
2023/06/03 06:21:16;;;;;;;5.88;4.05;;;17.10;83.30;;;;;;5092117;28;20603;-55
2023/06/03 06:23:44;;;;;;;5.95;4.05;;;17.00;83.20;;;;;;5081593;28;20025;-55
2023/06/03 06:26:14;;;;;;;4.93;3.83;;;17.00;83.10;;;;;;5085266;28;20020;-56
2023/06/03 06:28:40;;;;;;;4.72;3.58;;;16.90;83.20;;;;;;5087401;28;20059;-56
2023/06/03 06:31:06;;;;;;;5.22;3.80;;;16.80;83.10;;;;;;5082329;28;20016;-55
2023/06/03 06:33:35;;;;;;;4.35;3.78;;;16.80;83.30;;;;;;5087085;28;20467;-56
2023/06/03 06:36:30;;;;;;;4.75;3.72;;;16.70;83.20;;;;;;5084342;28;20024;-57
2023/06/03 06:38:56;;;;;;;6.10;3.33;;;16.60;82.80;;;;;;5085284;28;20024;-53
2023/06/03 06:41:27;;;;;;;6.28;3.00;;;16.50;83.30;;;;;;5084047;28;20063;-56
2023/06/03 06:43:54;;;;;;;4.45;2.58;;;16.50;83.70;;;;;;5085822;28;20074;-56
2023/06/03 06:46:23;;;;;;;5.38;2.88;;;16.40;83.80;;;;;;5086084;28;20035;-57
2023/06/03 06:48:49;;;;;;;2.47;2.28;;;16.40;84.20;;;;;;5086821;28;20036;-55
2023/06/03 06:51:14;;;;;;;2.47;2.28;;;16.30;84.60;;;;;;5085662;28;21283;-57
2023/06/03 06:53:47;;;;;;;2.00;1.80;;;16.30;84.90;;;;;;5086914;28;20034;-56
2023/06/03 06:56:13;;;;;;;4.45;2.20;;;16.20;84.70;;;;;;5083439;28;20028;-57
2023/06/03 06:58:39;;;;;;;2.30;2.10;;;16.10;84.50;;;;;;5087807;28;20032;-56
2023/06/03 07:01:06;;;;;;;2.38;2.25;;;16.10;84.70;;;;;;5087866;28;20100;-56
2023/06/03 07:03:33;;;;;;;3.92;2.60;;;16.00;85.10;;;;;;5085854;28;20016;-56
2023/06/03 07:05:59;;;;;;;2.58;2.38;;;15.90;84.30;;;;;;5086011;28;20537;-54
2023/06/03 07:08:25;;;;;;;3.35;2.50;;;15.90;84.30;;;;;;5083079;28;20060;-56
2023/06/03 07:10:54;;;;;;;2.95;2.65;;;15.90;84.60;;;;;;5075150;28;20052;-55
2023/06/03 07:13:20;;;;;;;3.13;2.80;;;15.80;84.80;;;;;;5080842;28;20565;-56
2023/06/03 07:15:46;;;;;;;3.20;2.90;;;15.80;84.70;;;;;;5082984;28;20032;-57
2023/06/03 07:18:12;;;;;;;4.85;3.10;;;15.80;84.20;;;;;;5076655;28;20032;-55
2023/06/03 07:20:45;;;;;;;3.03;2.72;;;15.70;84.50;;;;;;5073024;28;20659;-56
2023/06/03 07:23:12;;;;;;;4.22;3.17;;;15.70;84.30;;;;;;5073634;28;20029;-57
2023/06/03 07:25:38;;;;;;;5.03;2.50;;;15.70;83.70;;;;;;5081024;28;20058;-57
2023/06/03 07:28:07;;;;;;;4.22;3.60;;;15.60;83.40;;;;;;5087278;28;20028;-57
2023/06/03 07:30:35;;;;;;;3.10;2.80;;;15.60;83.10;;;;;;5080778;28;20356;-57
2023/06/03 07:33:04;;;;;;;4.28;3.05;;;15.60;82.90;;;;;;5087040;28;20063;-57
2023/06/03 07:35:30;;;;;;;3.78;3.22;;;15.60;83.40;;;;;;5089910;28;20028;-57
2023/06/03 07:37:56;;;;;;;4.85;3.20;;;15.60;83.30;;;;;;5088984;28;20484;-55
2023/06/03 07:40:38;;;;;;;3.47;3.10;;;15.60;83.30;;;;;;5087050;28;20611;-57
2023/06/03 07:43:04;;;;;;;3.45;3.05;;;15.60;82.70;;;;;;5081853;28;20082;-56
2023/06/03 07:45:30;;;;;;;3.95;2.90;;;15.60;83.30;;;;;;5088267;28;20067;-55
2023/06/03 07:47:56;;;;;;;3.30;3.00;;;15.60;83.10;;;;;;5089008;28;20062;-57
2023/06/03 07:50:25;;;;;;;4.85;3.45;;;15.70;82.40;;;;;;5088037;28;20101;-57
2023/06/03 07:53:02;;;;;;;3.63;3.15;;;15.70;82.40;;;;;;5084882;28;20028;-55
2023/06/03 07:55:49;;;;;;;3.67;3.20;;;15.70;82.30;;;;;;5086981;28;20111;-54
2023/06/03 07:58:16;;;;;;;3.33;3.03;;;15.70;81.70;;;;;;5085636;28;20024;-56
2023/06/03 08:00:49;;;;;;;3.70;3.35;;;15.70;81.80;;;;;;5083960;28;20019;-56
2023/06/03 08:03:22;;;;;;;4.47;3.30;;;15.70;81.40;;;;;;5082171;28;20036;-56
2023/06/03 08:05:49;;;;;;;4.00;3.50;;;15.80;81.50;;;;;;5079310;28;20049;-55
2023/06/03 08:08:17;;;;;;;3.30;3.00;;;15.80;81.40;;;;;;5083173;28;20020;-56
2023/06/03 08:10:46;;;;;;;3.75;2.88;;;15.80;81.10;;;;;;5083559;28;20028;-54
2023/06/03 08:13:13;;;;;;;7.13;3.55;;;15.80;81.00;;;;;;5086498;28;21565;-58
2023/06/03 08:15:40;;;;;;;4.30;3.45;;;15.90;80.80;;;;;;5084939;28;20141;-60
2023/06/03 08:18:07;;;;;;;4.57;3.22;;;16.00;81.10;;;;;;5081598;28;20445;-57
2023/06/03 08:20:34;;;;;;;3.95;3.22;;;16.10;80.70;;;;;;5085352;28;20020;-58
2023/06/03 08:23:01;;;;;;;3.38;3.00;;;16.20;80.20;;;;;;5082083;28;20139;-55
2023/06/03 08:25:26;;;;;;;3.30;2.92;;;16.40;79.40;;;;;;5080685;28;20036;-59
2023/06/03 08:27:52;;;;;;;4.30;3.10;;;16.50;79.30;;;;;;5086678;28;20432;-53
2023/06/03 08:30:20;;;;;;;3.22;2.92;;;16.60;78.80;;;;;;5086009;28;20429;-57
2023/06/03 08:32:46;;;;;;;4.25;3.20;;;16.60;78.00;;;;;;5081580;28;20024;-59
2023/06/03 08:35:20;;;;;;;5.07;3.10;;;16.70;77.70;;;;;;5076516;28;20024;-58
2023/06/03 08:37:46;;;;;;;3.35;3.05;;;16.70;77.20;;;;;;5084169;28;20035;-60
2023/06/03 08:40:14;;;;;;;3.53;2.50;;;16.80;77.00;;;;;;5085854;28;20027;-57
2023/06/03 08:42:47;;;;;;;3.60;2.80;;;16.80;76.50;;;;;;5085272;28;20039;-57
2023/06/03 08:45:17;;;;;;;3.15;2.83;;;16.90;76.10;;;;;;5083602;28;20121;-58
2023/06/03 08:47:58;;;;;;;4.18;2.85;;;16.90;76.10;;;;;;5081531;28;20166;-56
2023/06/03 08:50:26;;;;;;;4.43;2.65;;;17.00;75.40;;;;;;5087448;28;20028;-55
2023/06/03 08:52:53;;;;;;;2.95;2.60;;;17.00;74.60;;;;;;5083056;28;20067;-56
2023/06/03 08:55:20;;;;;;;3.97;3.00;;;17.00;74.80;;;;;;5078943;28;20031;-56
2023/06/03 08:57:50;;;;;;;3.38;2.65;;;17.10;73.90;;;;;;5077637;28;20075;-58
2023/06/03 09:00:21;;;;;;;6.88;2.80;;;17.10;74.20;;;;;;5086631;28;20028;-55
2023/06/03 09:02:47;;;;;;;3.60;2.88;;;17.10;73.30;;;;;;5079839;28;20024;-56
2023/06/03 09:05:14;;;;;;;3.75;2.92;;;17.10;73.20;;;;;;5083446;28;20043;-57
2023/06/03 09:07:40;;;;;;;5.60;2.80;;;17.10;73.00;;;;;;5084130;28;20027;-57
2023/06/03 09:10:08;;;;;;;4.25;3.35;;;17.20;74.20;;;;;;5082528;28;20023;-56
2023/06/03 09:12:34;;;;;;;5.15;3.20;;;17.30;74.60;;;;;;5087193;28;20024;-56
2023/06/03 09:15:01;;;;;;;4.38;2.70;;;17.40;74.40;;;;;;5079925;28;20074;-57
2023/06/03 09:17:28;;;;;;;4.95;2.97;;;17.60;73.40;;;;;;5080573;28;21805;-55
2023/06/03 09:19:57;;;;;;;3.72;2.80;;;17.70;72.80;;;;;;5077340;28;20035;-55
2023/06/03 09:22:24;;;;;;;3.50;2.83;;;17.70;72.30;;;;;;5076292;28;20880;-55
2023/06/03 09:24:49;;;;;;;4.15;2.70;;;17.80;71.50;;;;;;5078795;28;20029;-55
2023/06/03 09:27:15;;;;;;;3.15;2.58;;;17.80;70.80;;;;;;5082205;28;20051;-55
2023/06/03 09:29:41;;;;;;;2.58;2.38;;;17.80;70.50;;;;;;5076020;28;20039;-58
2023/06/03 09:32:08;;;;;;;3.80;2.33;;;17.80;70.20;;;;;;5081128;28;20043;-54
2023/06/03 09:34:35;;;;;;;5.95;3.10;;;17.80;70.60;;;;;;5082558;28;20093;-56
2023/06/03 09:37:08;;;;;;;5.78;2.70;;;17.80;70.20;;;;;;5079653;28;20051;-55
2023/06/03 09:39:35;;;;;;;4.50;3.20;;;17.80;70.00;;;;;;5086970;28;20053;-55
2023/06/03 09:42:01;;;;;;;3.10;2.80;;;17.80;69.60;;;;;;5086953;28;21647;-54
2023/06/03 09:44:46;;;;;;;3.08;2.67;;;17.80;69.40;;;;;;5082786;28;20062;-56
2023/06/03 09:47:12;;;;;;;5.43;2.50;;;17.80;68.90;;;;;;5083647;28;20039;-54
2023/06/03 09:49:39;;;;;;;5.75;2.88;;;17.80;69.00;;;;;;5084976;28;20035;-55
2023/06/03 09:52:09;;;;;;;3.42;2.55;;;17.80;69.00;;;;;;5082071;28;20027;-56
2023/06/03 09:54:35;;;;;;;4.65;2.40;;;17.70;68.90;;;;;;5082660;28;20032;-56
2023/06/03 09:57:12;;;;;;;2.58;2.22;;;17.70;68.70;;;;;;5081884;28;20020;-56
2023/06/03 10:01:31;;;;;;;4.43;2.50;;;17.50;68.20;;;;;;5035977;28;20436;-56
2023/06/03 10:04:01;;;;;;;3.80;2.25;;;17.50;68.80;;;;;;5034862;28;20026;-56
2023/06/03 10:06:26;;;;;;;3.10;2.40;;;17.50;68.70;;;;;;5037367;28;20379;-54
2023/06/03 10:08:52;;;;;;;2.28;2.08;;;17.60;68.00;;;;;;5038786;28;20022;-54
2023/06/03 10:11:18;;;;;;;2.92;2.22;;;17.60;67.40;;;;;;5038868;28;20035;-56
2023/06/03 10:13:44;;;;;;;3.50;2.45;;;17.70;67.10;;;;;;5043066;28;20033;-54
2023/06/03 10:16:11;;;;;;;6.68;2.50;;;17.70;67.10;;;;;;5036070;28;20488;-56
2023/06/03 10:18:41;;;;;;;2.30;2.10;;;17.90;67.10;;;;;;5040257;28;20035;-53
2023/06/03 10:21:12;;;;;;;2.57;2.20;;;18.00;66.90;;;;;;5034913;28;20376;-55
2023/06/03 10:23:41;;;;;;;3.87;2.30;;;18.20;66.70;;;;;;5028863;28;20630;-54
2023/06/03 10:26:08;;;;;;;3.20;2.20;;;18.20;66.50;;;;;;5031169;28;20610;-56
2023/06/03 10:28:35;;;;;;;1.98;1.88;;;18.30;65.50;;;;;;5031818;28;20473;-54
2023/06/03 10:31:04;;;;;;;3.83;2.30;;;18.50;65.20;;;;;;5035768;28;20107;-53
2023/06/03 10:33:31;;;;;;;3.90;2.30;;;18.60;64.60;;;;;;5032563;28;20056;-57
2023/06/03 10:35:57;;;;;;;3.42;1.95;;;18.70;64.30;;;;;;5038173;28;20096;-56
2023/06/03 10:38:23;;;;;;;4.13;2.00;;;18.80;63.50;;;;;;5032752;28;20388;-54
2023/06/03 10:40:50;;;;;;;3.72;2.30;;;18.90;62.90;;;;;;5035873;28;20052;-54
2023/06/03 10:43:16;;;;;;;2.22;2.00;;;18.90;63.10;;;;;;5037150;28;20044;-55
2023/06/03 10:45:42;;;;;;;2.00;1.80;;;19.00;62.40;;;;;;5037144;28;20520;-55
2023/06/03 10:48:12;;;;;;;2.03;1.83;;;19.00;62.20;;;;;;5036200;28;20029;-55
2023/06/03 10:50:58;;;;;;;5.57;2.30;;;19.10;61.90;;;;;;5025329;28;20048;-58
2023/06/03 10:53:39;;;;;;;4.55;2.40;;;19.20;61.90;;;;;;5030954;28;20600;-57
2023/06/03 10:56:13;;;;;;;;;;;19.20;61.30;;;;;;5030007;28;20034;-57
2023/06/03 10:58:41;;;;;;;3.65;2.45;;;19.20;61.90;;;;;;5029459;28;20001;-57
2023/06/03 11:01:06;;;;;;;4.95;1.95;;;19.20;61.10;;;;;;5032838;28;20049;-57
2023/06/03 11:03:34;;;;;;;3.58;2.15;;;19.10;60.40;;;;;;5033546;28;20029;-58
2023/06/03 11:06:18;;;;;;;3.35;2.05;;;19.00;60.00;;;;;;5031348;28;20112;-57
2023/06/03 11:09:04;;;;;;;2.45;1.80;;;19.00;59.60;;;;;;5032094;28;20027;-56
2023/06/03 11:11:42;;;;;;;3.25;1.85;;;18.90;59.20;;;;;;5022266;28;20080;-58
2023/06/03 11:14:09;;;;;;;3.30;1.73;;;18.80;58.30;;;;;;5025701;28;20040;-56
2023/06/03 11:16:57;;;;;;;3.65;1.95;;;18.70;58.30;;;;;;5013333;28;20034;-57
2023/06/03 11:19:31;;;;;;;2.55;1.83;;;18.70;58.50;;;;;;5018126;28;20034;-56
2023/06/03 11:22:07;;;;;;;2.50;1.80;;;18.60;58.30;;;;;;5023898;28;20029;-56
2023/06/03 11:24:39;;;;;;;2.63;1.70;;;18.50;58.10;;;;;;5029601;28;20025;-57
2023/06/03 11:27:18;;;;;;;3.00;1.67;;;18.50;57.60;;;;;;5025785;28;20084;-54
2023/06/03 11:29:44;;;;;;;2.88;1.65;;;18.50;57.60;;;;;;5025939;28;20052;-56
2023/06/03 11:32:20;;;;;;;2.75;1.35;;;18.40;57.40;;;;;;5028250;28;20503;-54
2023/06/03 11:34:47;;;;;;;10.23;1.98;;;18.40;56.90;;;;;;5020359;28;20025;-54
2023/06/03 11:37:19;;;;;;;1.80;1.63;;;18.30;56.30;;;;;;5028211;28;20473;-56
2023/06/03 11:40:05;;;;;;;1.90;1.70;;;18.30;55.90;;;;;;5019966;28;20041;-55
2023/06/03 11:42:31;;;;;;;3.35;2.00;;;18.30;55.60;;;;;;5026119;28;20044;-54
2023/06/03 11:45:16;;;;;;;1.80;1.67;;;18.30;55.90;;;;;;5017576;28;20389;-54
2023/06/03 11:47:53;;;;;;;4.28;1.75;;;18.30;56.30;;;;;;5019567;28;20021;-52
2023/06/03 11:50:20;;;;;;;2.72;1.50;;;18.30;55.80;;;;;;5025625;28;20060;-54
2023/06/03 11:52:46;;;;;;;2.08;1.63;;;18.30;55.20;;;;;;5020424;28;20042;-53
2023/06/03 11:55:27;;;;;;;2.88;1.80;;;18.30;55.10;;;;;;5025011;28;20082;-52
2023/06/03 11:57:56;;;;;;;3.10;1.77;;;18.40;55.20;;;;;;5011304;28;20116;-57
2023/06/03 12:00:22;;;;;;;2.45;1.50;;;18.30;55.30;;;;;;5015920;28;20074;-56
2023/06/03 12:02:48;;;;;;;3.15;1.60;;;18.40;55.10;;;;;;5029585;28;20053;-57
2023/06/03 12:05:15;;;;;;;2.47;1.70;;;18.50;54.70;;;;;;5023064;28;20033;-58
2023/06/03 12:08:01;;;;;;;1.73;1.63;;;18.50;54.20;;;;;;5022834;28;20084;-58
2023/06/03 12:10:27;;;;;;;1.65;1.30;;;18.60;54.20;;;;;;5021653;28;20129;-58
2023/06/03 12:12:57;;;;;;;2.00;1.80;;;18.60;54.10;;;;;;5026466;28;20025;-57
2023/06/03 12:15:24;;;;;;;2.67;1.75;;;18.60;54.10;;;;;;5021531;28;20400;-58
2023/06/03 12:17:51;;;;;;;2.92;1.67;;;18.60;53.90;;;;;;5023314;28;20064;-56
2023/06/03 12:20:27;;;;;;;1.42;1.33;;;18.60;53.80;;;;;;5015379;28;20088;-58
2023/06/03 12:22:59;;;;;;;3.13;1.80;;;18.70;52.90;;;;;;5018121;28;20132;-57
2023/06/03 12:25:27;;;;;;;2.88;1.70;;;18.70;53.00;;;;;;5021221;28;20301;-55
2023/06/03 12:27:52;;;;;;;2.05;1.73;;;18.70;52.60;;;;;;5019874;28;20017;-57
2023/06/03 12:30:29;;;;;;;2.45;1.33;;;18.70;52.60;;;;;;5019506;28;20033;-57
2023/06/03 12:32:58;;;;;;;2.50;1.35;;;18.80;52.00;;;;;;5022989;28;20095;-58
2023/06/03 12:35:28;;;;;;;2.90;1.63;;;18.80;51.50;;;;;;5019368;28;20399;-59
2023/06/03 12:38:04;;;;;;;2.58;1.67;;;18.70;51.00;;;;;;5022867;28;20037;-59
2023/06/03 12:40:29;;;;;;;1.48;1.35;;;18.70;51.00;;;;;;5024956;28;20118;-57
2023/06/03 12:42:56;;;;;;;1.80;1.50;;;18.60;50.80;;;;;;5024859;28;20264;-56
2023/06/03 12:45:26;;;;;;;2.25;1.17;;;18.60;50.40;;;;;;5024646;28;20527;-57
2023/06/03 12:47:53;;;;;;;2.88;1.90;;;18.60;49.80;;;;;;5026053;28;20108;-57
2023/06/03 12:50:20;;;;;;;2.25;1.80;;;18.60;50.00;;;;;;5026113;28;20063;-57
2023/06/03 12:52:47;;;;;;;1.88;1.70;;;18.50;50.20;;;;;;5025759;28;20037;-58
2023/06/03 12:55:15;;;;;;;1.77;1.67;;;18.50;49.90;;;;;;5024837;28;20053;-56
2023/06/03 12:57:42;;;;;;;3.63;1.60;;;18.50;49.70;;;;;;5027353;28;20470;-59